Flight Track Log - Related Links

Times and Time Zones

All times are in EDT time to prevent confusion due to time zone crossing. See the EJA641 flight status page for this flight to view local times or setup timezone preferences in your user account.

Time Position Orientation Groundspeed Altitude Reporting Facility
EDT Latitude Longitude Course Direction KTS MPH feet Rate Location/Type
Sat 06:17:16 PM 37.6406 -97.4278 196° South 183 211 2,300  Level Kansas City Center
Sat 06:18:21 PM 37.5797 -97.4503 196° South 215 247 6,600 3,722 Climbing Kansas City Center
Sat 06:19:04 PM 37.5494 -97.4642 200° South 215 247 9,000 4,230 Climbing Kansas City Center
Sat 06:19:22 PM 37.5194 -97.4781 200° South 242 278 10,900 4,721 Climbing Kansas City Center
Sat 06:20:05 PM 37.4733 -97.5014 202° Southwest 242 278 13,800 3,308 Climbing Kansas City Center
Sat 06:21:09 PM 37.3994 -97.5361 200° South 283 326 16,800 2,762 Climbing Kansas City Center
Sat 06:22:11 PM 37.3172 -97.5742 200° South 307 353 19,600 2,829 Climbing Kansas City Center
Sat 06:23:12 PM 37.2267 -97.5925 189° South 332 382 22,600 2,878 Climbing Kansas City Center
Sat 06:24:14 PM 37.1281 -97.5950 181° South 349 402 25,500 2,537 Climbing Kansas City Center
Sat 06:25:15 PM 37.0286 -97.5933 179° South 354 407 27,800 2,115 Climbing Kansas City Center
Sat 06:26:16 PM 36.9244 -97.5950 181° South 370 426 29,800 1,820 Climbing Kansas City Center
Sat 06:27:17 PM 36.8175 -97.5967 181° South 380 437 31,500 2,016 Climbing Kansas City Center
Sat 06:28:21 PM 36.6900 -97.5969 180° South 382 440 34,000 1,210 Climbing Kansas City Center
Sat 06:29:21 PM 36.5786 -97.5978 180° South 397 457 34,000  Level Kansas City Center
Sat 06:30:23 PM 36.4658 -97.6006 181° South 398 458 34,000  Level Kansas City Center
Sat 06:31:24 PM 36.3594 -97.6006 180° South 388 447 34,000  Level Kansas City Center
Sat 06:32:27 PM 36.2564 -97.6031 181° South 375 432 34,000  Level Kansas City Center
Sat 06:33:28 PM 36.1553 -97.6036 180° South 367 422 34,000  Level Kansas City Center
Sat 06:34:31 PM 36.0553 -97.6033 180° South 361 415 34,000  Level Kansas City Center
Sat 06:35:31 PM 35.9556 -97.6044 181° South 361 415 34,000  Level Kansas City Center
Sat 06:36:35 PM 35.8356 -97.6067 181° South 360 414 34,000  Level Kansas City Center
Sat 06:37:03 PM 35.7897 -97.6081 181° South 362 417 34,000  Level Fort Worth Center
Sat 06:38:03 PM 35.6897 -97.6078 180° South 362 417 34,000  Level Fort Worth Center
Sat 06:39:03 PM 35.5894 -97.6100 181° South 362 417 34,000  Level Fort Worth Center
Sat 06:40:03 PM 35.4894 -97.6125 181° South 362 417 34,000  Level Fort Worth Center
Sat 06:41:03 PM 35.3769 -97.6147 181° South 368 423 34,000  Level Fort Worth Center
Sat 06:42:03 PM 35.2789 -97.6247 185° South 363 418 34,000  Level Fort Worth Center
Sat 06:43:03 PM 35.1808 -97.6319 183° South 363 418 34,000  Level Fort Worth Center
Sat 06:44:03 PM 35.0806 -97.6469 187° South 363 418 34,000  Level Fort Worth Center
Sat 06:45:03 PM 34.9825 -97.6567 185° South 368 423 34,000  Level Fort Worth Center
Sat 06:46:03 PM 34.8844 -97.6692 186° South 368 423 34,000  Level Fort Worth Center
Sat 06:47:03 PM 34.7864 -97.6789 185° South 368 423 34,000 -250 Level Fort Worth Center
Sat 06:48:03 PM 34.6883 -97.6914 186° South 368 423 33,500 -1,250 Descending Fort Worth Center
Sat 06:49:03 PM 34.5819 -97.7061 186° South 373 429 31,500 -2,050 Descending Fort Worth Center
Sat 06:50:03 PM 34.4714 -97.7183 185° South 387 445 29,400 -2,150 Descending Fort Worth Center
Sat 06:51:03 PM 34.3608 -97.7306 185° South 399 459 27,200 -2,100 Descending Fort Worth Center
Sat 06:52:03 PM 34.2522 -97.7425 185° South 399 459 25,200 -2,450 Descending Fort Worth Center
Sat 06:53:03 PM 34.1458 -97.7547 185° South 399 459 22,300 -3,200 Descending Fort Worth Center
Sat 06:54:03 PM 34.0433 -97.7619 183° South 385 443 18,800 -3,450 Descending Fort Worth Center
Sat 06:55:03 PM 33.9578 -97.7767 188° South 363 418 15,400 -3,550 Descending Fort Worth Center
Sat 06:56:03 PM 33.8681 -97.7861 185° South 341 392 11,700 -3,300 Descending Fort Worth Center
Sat 06:57:03 PM 33.7931 -97.7933 185° South 300 345 8,800 -1,850 Descending Fort Worth Center
Sat 06:58:03 PM 33.7178 -97.8031 186° South 274 315 8,000 -400 Descending Fort Worth Center
Sat 06:59:03 PM 33.6447 -97.8103 185° South 269 310 8,000  Level Fort Worth Center
Sat 07:00:03 PM 33.5633 -97.8197 186° South 269 310 8,000  Level Fort Worth Center
Sat 07:01:03 PM 33.4944 -97.8094 173° South 264 304 8,000  Level Fort Worth Center
Sat 07:02:03 PM 33.4214 -97.7842 164° South 264 304 8,000  Level Fort Worth Center
Sat 07:03:03 PM 33.3525 -97.7642 166° South 264 304 8,000  Level Fort Worth Center
Sat 07:04:03 PM 33.2900 -97.7414 163° South 258 297 8,000 -100 Level Fort Worth Center
Sat 07:05:03 PM 33.2192 -97.6892 148° Southeast 263 303 7,800 -750 Descending Fort Worth Center
Sat 07:06:03 PM 33.1714 -97.6394 139° Southeast 268 308 6,500 -900 Descending Fort Worth Center
Sat 07:07:03 PM 33.1192 -97.5894 141° Southeast 257 296 6,000 -500 Descending Fort Worth Center
Sat 07:08:03 PM 33.0586 -97.5397 145° Southeast 252 290 5,500 -650 Descending Fort Worth Center
Sat 07:09:03 PM 33.0108 -97.5050 149° Southeast 230 265 4,700 -750 Descending Fort Worth Center
Sat 07:10:03 PM 32.9586 -97.4678 149° Southeast 203 234 4,000 -350 Descending Fort Worth Center
Sat 07:11:03 PM 32.9169 -97.4381 149° Southeast 197 227 4,000  Level Fort Worth Center
Sat 07:12:03 PM 32.8667 -97.4011 148° Southeast 197 227 4,000  Level Fort Worth Center
Sat 07:13:03 PM 32.8272 -97.3714 148° Southeast 197 227 4,000  Level Fort Worth Center
Sat 07:14:03 PM 32.7769 -97.3369 150° Southeast 197 227 4,000  Level Fort Worth Center
Sat 07:15:58 PM 32.6833 -97.2667 148° Southeast 195 224 4,000  Level Dallas / Fort Worth TRACON
Sat 07:16:59 PM 32.6500 -97.2167 128° Southeast 198 228 4,000  Level Dallas / Fort Worth TRACON
Sat 07:17:54 PM 32.6333 -97.1667 112° Southeast 197 227 4,000 -198 Level Dallas / Fort Worth TRACON
Sat 07:19:00 PM 32.6167 -97.1000 107° East 178 205 3,600 -364 Descending Dallas / Fort Worth TRACON

Login

Don't have an account? Register now (free) for customized features, flight alerts, and more!